Frenchville, ME

3:18 PM EST on December 08, 2016 (GMT -0500)
K1FTK | | Change Station

Elev 825 ft 47.25 °N, 68.35 °W | Updated 8 minutes ago

Overcast
Overcast
31.5 °F
Feels Like 32 °F
N
0.0
Wind Variable Wind from SW
Gusts 0.0 mph

Today
High -- | Low -- °F
--% Chance of Precip.
Yesterday
High -- | Low -- °F
Precip. -- in
Pressure 29.62 in
Visibility 10.0 miles
Clouds Mostly Cloudy 2500 ft
Overcast 3100 ft
Windchill 32 °F
Dew Point 29 °F
Humidity 91%
Rainfall 0.00 in
Snow Depth Not available.
7:07 AM 3:43 PM
Waxing Gibbous, 66% visible
METAR KFVE 081953Z AUTO 17003KT 10SM BKN025 OVC031 M01/M03 A2959 RMK AO2 SLP029 T10111033
Pressure 29.62 in
Visibility 10.0 miles
Clouds Mostly Cloudy 2500 ft
Overcast 3100 ft
Windchill 32 °F
Dew Point 29 °F
Humidity 91%
Rainfall 0.00 in
Snow Depth Not available.
7:07 AM 3:43 PM
Waxing Gibbous, 66% visible
METAR KFVE 081953Z AUTO 17003KT 10SM BKN025 OVC031 M01/M03 A2959 RMK AO2 SLP029 T10111033

10-Day Weather Forecast

Almanac

Astronomy

Dec. 08, 2016 Rise Set
Actual Time
Civil Twilight
Nautical Twilight
Astronomical Twilight
Moon
Length of Visible Light
Length of Day
Tomorrow will be .
, % of the Moon is Illuminated

Today's Extremes

State Highs State Lows

Community

WunderPhotos

Upload Photos

1,956,277 photos uploaded!

WunderBlog® & News

Nearby

Air Quality

  Air Quality AQ Index Pollutant
Not available.

Snow Depth

Station Depth Elevation

Earthquake Activity

City Distance Mag. Time & Date
Minimum magnitude displayed is 2.5.

Coastal Water Temperatures

Place Temperature

Stations

Nearby Weather Stations

Station Location Temp. Windchill Dew Point Humidity Wind Precip. Elev Updated Type
                   

Watches & Warnings

There are currently no watches in effect.